createdAt,value
2023-02-25T00:00:36.724Z,25.33
2023-02-25T00:03:04.442Z,26.38
2023-02-25T00:05:33.493Z,25.92
2023-02-25T00:08:01.131Z,22.55
2023-02-25T00:10:28.738Z,22.40
2023-02-25T00:13:00.751Z,17.70
2023-02-25T00:15:33.374Z,15.45
2023-02-25T00:18:00.904Z,14.20
2023-02-25T00:20:28.463Z,14.25
2023-02-25T00:22:56.000Z,16.10
2023-02-25T00:25:23.583Z,11.45
2023-02-25T00:27:51.185Z,13.45
2023-02-25T00:30:18.793Z,12.63
2023-02-25T00:32:46.786Z,8.93
2023-02-25T00:35:14.367Z,11.90
2023-02-25T00:37:41.959Z,8.82
2023-02-25T00:40:14.641Z,10.65
2023-02-25T00:42:43.275Z,10.57
2023-02-25T00:45:11.564Z,9.05
2023-02-25T00:47:39.613Z,14.65
2023-02-25T00:50:09.617Z,10.35
2023-02-25T00:52:37.868Z,11.55
2023-02-25T00:55:06.547Z,9.07
2023-02-25T00:57:34.148Z,9.70
2023-02-25T01:00:01.746Z,17.35
2023-02-25T01:02:29.790Z,10.05
2023-02-25T01:04:58.741Z,9.02
2023-02-25T01:07:26.365Z,9.00
2023-02-25T01:09:58.062Z,10.57
2023-02-25T01:12:25.642Z,13.68
2023-02-25T01:14:56.045Z,11.13
2023-02-25T01:17:23.736Z,8.45
2023-02-25T01:19:51.309Z,7.15
2023-02-25T01:22:18.919Z,7.30
2023-02-25T01:24:46.548Z,9.35
2023-02-25T01:27:14.342Z,9.13
2023-02-25T01:29:43.910Z,9.80
2023-02-25T01:32:13.861Z,7.25
2023-02-25T01:34:41.860Z,9.60
2023-02-25T01:37:09.845Z,8.35
2023-02-25T01:39:40.944Z,8.70
2023-02-25T01:42:13.678Z,8.93
2023-02-25T01:45:03.410Z,7.65
2023-02-25T01:47:33.500Z,9.48
2023-02-25T01:50:02.122Z,8.55
2023-02-25T01:52:29.708Z,6.28
2023-02-25T01:54:58.420Z,7.40
2023-02-25T01:57:26.697Z,7.53
2023-02-25T01:59:55.499Z,7.65
2023-02-25T02:02:27.161Z,6.72
2023-02-25T02:04:55.087Z,7.05
2023-02-25T02:07:24.791Z,9.70
2023-02-25T02:09:59.829Z,8.15
2023-02-25T02:12:29.957Z,8.23
2023-02-25T02:14:58.796Z,8.32
2023-02-25T02:17:43.716Z,7.95
2023-02-25T02:20:13.383Z,7.15
2023-02-25T02:22:59.836Z,8.63
2023-02-25T02:25:27.404Z,6.05
2023-02-25T02:28:13.298Z,6.20
2023-02-25T02:30:45.239Z,7.03
2023-02-25T02:33:24.876Z,7.70
2023-02-25T02:35:58.881Z,7.43
2023-02-25T02:38:33.152Z,5.20
2023-02-25T02:41:23.372Z,5.45
2023-02-25T02:43:50.901Z,4.82
2023-02-25T02:46:26.332Z,5.18
2023-02-25T02:49:14.389Z,5.20
2023-02-25T02:51:44.795Z,6.85
2023-02-25T02:54:14.607Z,4.65
2023-02-25T02:56:44.027Z,5.22
2023-02-25T02:59:18.694Z,6.28
2023-02-25T03:01:51.469Z,5.82
2023-02-25T03:04:26.768Z,5.78
2023-02-25T03:06:58.470Z,7.00
2023-02-25T03:09:38.271Z,5.47
2023-02-25T03:12:06.463Z,4.65
2023-02-25T03:14:36.775Z,3.78
2023-02-25T03:17:30.444Z,6.32
2023-02-25T03:20:04.335Z,5.70
2023-02-25T03:22:37.258Z,5.38
2023-02-25T03:25:25.129Z,4.80
2023-02-25T03:27:53.843Z,2.85
2023-02-25T03:30:33.146Z,3.78
2023-02-25T03:33:07.407Z,4.97
2023-02-25T03:35:36.254Z,3.55
2023-02-25T03:38:14.697Z,3.90
2023-02-25T03:40:43.305Z,4.35
2023-02-25T03:43:14.760Z,3.38
2023-02-25T03:45:44.244Z,2.85
2023-02-25T03:48:13.313Z,3.60
2023-02-25T03:51:00.225Z,4.28
2023-02-25T03:53:28.792Z,4.63
2023-02-25T03:56:06.465Z,4.35
2023-02-25T03:58:37.126Z,6.30
2023-02-25T04:01:06.952Z,3.17
2023-02-25T04:03:35.361Z,3.60
2023-02-25T04:06:03.390Z,5.82
2023-02-25T04:08:30.935Z,3.38
2023-02-25T04:10:58.536Z,7.55
2023-02-25T04:13:26.166Z,4.80
2023-02-25T04:15:53.850Z,4.63
2023-02-25T04:18:21.440Z,6.13
2023-02-25T04:20:49.068Z,4.90
2023-02-25T04:23:16.757Z,7.78
2023-02-25T04:25:44.395Z,6.53
2023-02-25T04:28:12.061Z,8.13
2023-02-25T04:30:39.706Z,6.82
2023-02-25T04:33:07.296Z,7.22
2023-02-25T04:35:34.850Z,8.32
2023-02-25T04:38:02.373Z,8.30
2023-02-25T04:40:30.044Z,9.27
2023-02-25T04:42:57.594Z,7.28
2023-02-25T04:45:26.944Z,6.25
2023-02-25T04:47:57.669Z,7.78
2023-02-25T04:50:25.442Z,7.90
2023-02-25T04:52:53.072Z,11.13
2023-02-25T04:55:20.625Z,8.07
2023-02-25T04:57:48.231Z,8.35
2023-02-25T05:00:20.963Z,10.55
2023-02-25T05:02:49.022Z,10.50
2023-02-25T05:05:17.234Z,10.82
2023-02-25T05:07:45.041Z,10.40
2023-02-25T05:10:14.513Z,12.25
2023-02-25T05:12:42.483Z,10.45
2023-02-25T05:15:10.668Z,14.38
2023-02-25T05:17:38.300Z,11.80
2023-02-25T05:20:12.824Z,13.38
2023-02-25T05:22:41.665Z,12.32
2023-02-25T05:25:10.304Z,16.30
2023-02-25T05:27:38.134Z,14.18
2023-02-25T05:30:06.119Z,15.73
2023-02-25T05:32:33.973Z,14.48
2023-02-25T05:35:01.592Z,16.42
2023-02-25T05:37:29.145Z,17.27
2023-02-25T05:39:58.406Z,15.52
2023-02-25T05:42:26.008Z,16.65
2023-02-25T05:44:53.586Z,15.80
2023-02-25T05:47:21.328Z,16.73
2023-02-25T05:49:48.907Z,20.05
2023-02-25T05:52:16.445Z,17.50
2023-02-25T05:54:43.984Z,17.83
2023-02-25T05:57:11.518Z,19.75
2023-02-25T05:59:39.050Z,16.60
2023-02-25T06:02:06.706Z,16.75
2023-02-25T06:04:34.306Z,18.75
2023-02-25T06:07:03.506Z,16.70
2023-02-25T06:09:32.011Z,15.38
2023-02-25T06:11:59.571Z,15.43
2023-02-25T06:14:28.561Z,15.43
2023-02-25T06:16:56.735Z,15.00
2023-02-25T06:19:26.421Z,20.02
2023-02-25T06:21:54.765Z,16.88
2023-02-25T06:24:23.202Z,17.70
2023-02-25T06:26:51.060Z,18.02
2023-02-25T06:29:18.597Z,16.45
2023-02-25T06:31:46.335Z,16.23
2023-02-25T06:34:14.043Z,15.23
2023-02-25T06:36:41.597Z,15.98
2023-02-25T06:39:09.687Z,17.48
2023-02-25T06:41:37.428Z,16.55
2023-02-25T06:44:06.342Z,18.88
2023-02-25T06:46:34.153Z,17.88
2023-02-25T06:49:02.059Z,15.43
2023-02-25T06:51:29.745Z,14.85
2023-02-25T06:53:57.354Z,16.33
2023-02-25T06:56:26.561Z,18.02
2023-02-25T06:58:56.648Z,14.63
2023-02-25T07:01:24.367Z,15.75
2023-02-25T07:03:52.291Z,14.90
2023-02-25T07:06:20.364Z,18.05
2023-02-25T07:08:48.106Z,17.27
2023-02-25T07:11:28.913Z,15.65
2023-02-25T07:13:56.630Z,17.38
2023-02-25T07:16:24.560Z,12.48
2023-02-25T07:18:52.243Z,16.98
2023-02-25T07:21:19.887Z,14.63
2023-02-25T07:23:47.483Z,12.77
2023-02-25T07:26:15.660Z,17.50
2023-02-25T07:28:44.219Z,14.27
2023-02-25T07:31:17.205Z,13.30
2023-02-25T07:33:45.027Z,15.18
2023-02-25T07:36:12.737Z,15.25
2023-02-25T07:38:40.394Z,15.68
2023-02-25T07:41:12.505Z,14.45
2023-02-25T07:43:40.154Z,15.32
2023-02-25T07:46:08.523Z,12.93
2023-02-25T07:48:36.323Z,12.93
2023-02-25T07:51:08.124Z,11.32
2023-02-25T07:56:03.446Z,12.40
2023-02-25T07:58:31.147Z,13.30
2023-02-25T08:00:59.423Z,14.93
2023-02-25T08:03:27.158Z,11.77
2023-02-25T08:05:54.806Z,13.27
2023-02-25T08:08:23.309Z,14.43
2023-02-25T08:10:50.839Z,14.45
2023-02-25T08:13:19.282Z,12.77
2023-02-25T08:15:47.152Z,11.75
2023-02-25T08:18:15.761Z,9.73
2023-02-25T08:20:47.361Z,9.02
2023-02-25T08:23:15.052Z,8.68
2023-02-25T08:25:42.777Z,11.63
2023-02-25T08:28:10.386Z,13.35
2023-02-25T08:30:38.066Z,10.05
2023-02-25T08:33:05.684Z,11.95
2023-02-25T08:35:33.296Z,11.23
2023-02-25T08:38:00.854Z,11.88
2023-02-25T08:40:28.659Z,11.05
2023-02-25T08:42:56.336Z,7.90
2023-02-25T08:45:24.005Z,6.57
2023-02-25T08:47:53.826Z,14.60
2023-02-25T08:50:23.726Z,7.78
2023-02-25T08:52:52.056Z,11.23
2023-02-25T08:55:19.873Z,7.45
2023-02-25T08:57:47.433Z,9.95
2023-02-25T09:00:15.555Z,7.25
2023-02-25T09:02:44.843Z,6.38
2023-02-25T09:05:12.449Z,7.75
2023-02-25T09:07:40.034Z,5.53
2023-02-25T09:10:08.243Z,5.57
2023-02-25T09:12:36.373Z,4.35
2023-02-25T09:15:04.088Z,5.03
2023-02-25T09:17:31.757Z,8.70
2023-02-25T09:20:01.241Z,6.10
2023-02-25T09:22:28.966Z,6.60
2023-02-25T09:24:56.627Z,8.68
2023-02-25T09:27:24.195Z,8.02
2023-02-25T09:29:51.807Z,7.32
2023-02-25T09:32:20.880Z,4.65
2023-02-25T09:34:49.219Z,6.18
2023-02-25T09:37:17.200Z,8.73
2023-02-25T09:39:44.825Z,5.53
2023-02-25T09:42:17.700Z,4.18
2023-02-25T09:44:53.096Z,6.35
2023-02-25T09:47:20.734Z,5.75
2023-02-25T09:49:48.394Z,7.18
2023-02-25T09:52:24.030Z,5.30
2023-02-25T09:55:00.780Z,6.00
2023-02-25T09:57:29.532Z,6.45
2023-02-25T09:59:57.139Z,3.70
2023-02-25T10:02:39.535Z,5.47
2023-02-25T10:05:16.310Z,4.45
2023-02-25T10:07:50.020Z,6.72
2023-02-25T10:10:37.856Z,5.85
2023-02-25T10:13:23.982Z,5.07
2023-02-25T10:15:56.093Z,4.18
2023-02-25T10:18:33.952Z,5.55
2023-02-25T10:21:09.448Z,6.82
2023-02-25T10:23:45.518Z,5.05
2023-02-25T10:26:24.560Z,5.40
2023-02-25T10:28:55.686Z,6.38
2023-02-25T10:31:24.146Z,6.22
2023-02-25T10:33:53.580Z,4.38
2023-02-25T10:36:39.497Z,7.05
2023-02-25T10:39:07.462Z,3.75
2023-02-25T10:41:36.160Z,7.03
2023-02-25T10:44:03.801Z,7.78
2023-02-25T10:46:41.649Z,3.10
2023-02-25T10:49:23.067Z,5.88
2023-02-25T10:51:58.042Z,7.97
2023-02-25T10:54:28.359Z,4.70
2023-02-25T10:56:58.630Z,7.05
2023-02-25T10:59:38.382Z,4.07
2023-02-25T11:02:19.067Z,6.43
2023-02-25T11:04:46.716Z,2.83
2023-02-25T11:07:25.583Z,3.83
2023-02-25T11:10:11.661Z,3.80
2023-02-25T11:12:58.089Z,5.00
2023-02-25T11:15:44.879Z,3.35
2023-02-25T11:18:20.643Z,3.60
2023-02-25T11:20:57.886Z,5.57
2023-02-25T11:23:36.386Z,4.40
2023-02-25T11:26:06.458Z,2.75
2023-02-25T11:28:38.947Z,3.45
2023-02-25T11:31:12.044Z,4.53
2023-02-25T11:33:42.894Z,2.97
2023-02-25T11:36:11.093Z,3.65
2023-02-25T11:38:42.858Z,3.13
2023-02-25T11:43:42.438Z,4.97
2023-02-25T11:46:17.510Z,3.22
2023-02-25T11:49:03.940Z,5.43
2023-02-25T11:52:04.222Z,2.40
2023-02-25T11:54:47.474Z,4.05
2023-02-25T11:57:15.000Z,6.10
2023-02-25T11:59:52.027Z,3.33
2023-02-25T12:02:36.343Z,2.08
2023-02-25T12:05:14.140Z,6.18
2023-02-25T12:08:12.826Z,3.72
2023-02-25T12:10:59.138Z,3.72
2023-02-25T12:13:53.139Z,2.85
2023-02-25T12:16:25.279Z,2.88
2023-02-25T12:19:11.700Z,2.13
2023-02-25T12:21:58.145Z,2.95
2023-02-25T12:24:34.670Z,2.80
2023-02-25T12:27:02.271Z,2.53
2023-02-25T12:29:32.158Z,3.15
2023-02-25T12:32:08.492Z,2.65
2023-02-25T12:34:42.244Z,4.45
2023-02-25T12:37:15.639Z,1.92
2023-02-25T12:39:55.780Z,2.28
2023-02-25T12:42:38.870Z,4.72
2023-02-25T12:45:24.910Z,3.85
2023-02-25T12:48:03.322Z,2.72
2023-02-25T12:50:49.866Z,2.17
2023-02-25T12:53:20.535Z,10.70
2023-02-25T12:55:58.771Z,5.63
2023-02-25T12:58:45.264Z,3.10
2023-02-25T13:01:38.938Z,3.60
2023-02-25T13:04:33.193Z,2.53
2023-02-25T13:07:30.790Z,2.83
2023-02-25T13:10:10.415Z,2.28
2023-02-25T13:12:57.649Z,1.50
2023-02-25T13:15:33.727Z,2.03
2023-02-25T13:18:12.279Z,2.72
2023-02-25T13:20:42.912Z,2.03
2023-02-25T13:23:27.657Z,1.00
2023-02-25T13:26:01.342Z,3.08
2023-02-25T13:28:41.405Z,6.45
2023-02-25T13:31:15.210Z,1.77
2023-02-25T13:33:48.954Z,4.38
2023-02-25T13:36:25.508Z,2.05
2023-02-25T13:39:02.327Z,1.50
2023-02-25T13:41:30.085Z,1.60
2023-02-25T13:44:12.157Z,2.53
2023-02-25T13:46:48.595Z,1.85
2023-02-25T13:49:19.519Z,2.33
2023-02-25T13:52:07.253Z,4.20
2023-02-25T13:54:45.521Z,2.92
2023-02-25T13:57:22.385Z,2.85
2023-02-25T13:59:59.100Z,2.28
2023-02-25T14:02:46.189Z,2.85
2023-02-25T14:05:32.716Z,3.13
2023-02-25T14:08:12.765Z,3.88
2023-02-25T14:10:59.878Z,1.65
2023-02-25T14:13:42.432Z,4.20
2023-02-25T14:16:18.968Z,2.92
2023-02-25T14:19:04.332Z,3.42
2023-02-25T14:21:35.149Z,3.08
2023-02-25T14:24:25.065Z,4.30
2023-02-25T14:27:03.551Z,1.75
2023-02-25T14:29:51.492Z,2.70
2023-02-25T14:32:19.299Z,4.05
2023-02-25T14:34:56.087Z,2.72
2023-02-25T14:37:32.277Z,5.40
2023-02-25T14:40:00.174Z,1.50
2023-02-25T14:42:27.852Z,2.60
2023-02-25T14:44:56.372Z,5.05
2023-02-25T14:47:32.472Z,2.55
2023-02-25T14:50:11.729Z,1.50
2023-02-25T14:52:59.265Z,1.60
2023-02-25T14:55:49.835Z,8.68
2023-02-25T14:58:19.287Z,10.15
2023-02-25T15:00:58.979Z,3.38
2023-02-25T15:03:32.954Z,2.72
2023-02-25T15:06:07.958Z,15.80
2023-02-25T15:09:05.715Z,6.13
2023-02-25T15:11:44.004Z,7.63
2023-02-25T15:14:43.835Z,2.05
2023-02-25T15:17:31.443Z,5.57
2023-02-25T15:20:04.362Z,4.88
2023-02-25T15:22:32.932Z,2.50
2023-02-25T15:25:23.625Z,4.82
2023-02-25T15:27:52.248Z,5.22
2023-02-25T15:30:24.418Z,4.60
2023-02-25T15:33:01.299Z,4.03
2023-02-25T15:35:34.894Z,3.15
2023-02-25T15:38:02.542Z,3.40
2023-02-25T15:40:33.276Z,4.25
2023-02-25T15:43:00.903Z,3.03
2023-02-25T15:45:28.645Z,3.92
2023-02-25T15:48:08.446Z,1.95
2023-02-25T15:50:42.014Z,2.00
2023-02-25T15:53:09.727Z,2.15
2023-02-25T15:55:37.747Z,2.22
2023-02-25T15:58:30.779Z,4.82
2023-02-25T16:00:59.509Z,1.52
2023-02-25T16:03:27.238Z,2.47
2023-02-25T16:05:55.368Z,2.17
2023-02-25T16:08:24.395Z,1.30
2023-02-25T16:10:55.915Z,1.67
2023-02-25T16:13:28.002Z,1.02
2023-02-25T16:15:57.618Z,1.85
2023-02-25T16:18:34.941Z,3.53
2023-02-25T16:21:07.191Z,4.50
2023-02-25T16:23:39.626Z,4.05
2023-02-25T16:26:16.286Z,4.10
2023-02-25T16:29:02.862Z,2.58
2023-02-25T16:31:33.426Z,1.55
2023-02-25T16:34:01.025Z,0.95
2023-02-25T16:36:34.652Z,1.70
2023-02-25T16:39:12.958Z,3.90
2023-02-25T16:41:41.019Z,2.65
2023-02-25T16:44:08.886Z,1.95
2023-02-25T16:46:38.982Z,5.30
2023-02-25T16:49:11.656Z,2.33
2023-02-25T16:51:41.395Z,4.13
2023-02-25T16:54:15.130Z,1.88
2023-02-25T16:56:44.277Z,2.08
2023-02-25T16:59:14.782Z,2.85
2023-02-25T17:01:54.740Z,2.47
2023-02-25T17:04:24.815Z,5.65
2023-02-25T17:07:09.794Z,3.88
2023-02-25T17:09:42.998Z,3.47
2023-02-25T17:12:13.627Z,1.75
2023-02-25T17:14:43.489Z,1.80
2023-02-25T17:17:17.203Z,5.68
2023-02-25T17:19:44.922Z,2.65
2023-02-25T17:22:13.521Z,8.43
2023-02-25T17:24:41.122Z,4.22
2023-02-25T17:27:12.289Z,3.90
2023-02-25T17:29:40.000Z,3.00
2023-02-25T17:32:19.276Z,2.70
2023-02-25T17:34:48.532Z,2.83
2023-02-25T17:37:16.803Z,2.80
2023-02-25T17:39:44.958Z,9.15
2023-02-25T17:42:41.254Z,5.53
2023-02-25T17:45:29.023Z,0.95
2023-02-25T17:47:56.919Z,1.13
2023-02-25T17:50:30.032Z,1.13
2023-02-25T17:52:58.535Z,1.50
2023-02-25T17:55:28.287Z,2.38
2023-02-25T17:57:58.167Z,6.15
2023-02-25T18:00:32.272Z,2.05
2023-02-25T18:03:17.845Z,2.35
2023-02-25T18:06:05.725Z,6.38
2023-02-25T18:08:50.855Z,1.13
2023-02-25T18:11:37.837Z,1.15
2023-02-25T18:14:25.718Z,2.05
2023-02-25T18:16:53.817Z,1.13
2023-02-25T18:19:27.297Z,3.10
2023-02-25T18:21:55.082Z,3.30
2023-02-25T18:24:30.422Z,0.82
2023-02-25T18:27:21.472Z,2.13
2023-02-25T18:29:49.161Z,6.83
2023-02-25T18:32:16.820Z,1.70
2023-02-25T18:34:44.546Z,0.88
2023-02-25T18:37:15.576Z,2.97
2023-02-25T18:39:43.148Z,39.72
2023-02-25T18:42:13.918Z,3.08
2023-02-25T18:44:41.599Z,163.05
2023-02-25T18:47:09.146Z,248.43
2023-02-25T18:49:36.708Z,79.97
2023-02-25T18:52:04.311Z,22.52
2023-02-25T18:54:31.948Z,34.33
2023-02-25T18:56:59.562Z,13.30
2023-02-25T18:59:27.123Z,11.27
2023-02-25T19:01:54.728Z,15.07
2023-02-25T19:04:22.490Z,12.85
2023-02-25T19:06:50.129Z,14.05
2023-02-25T19:09:17.797Z,16.52
2023-02-25T19:11:45.450Z,15.85
2023-02-25T19:14:17.470Z,15.85
2023-02-25T19:16:45.076Z,14.98
2023-02-25T19:19:14.022Z,8.50
2023-02-25T19:21:41.834Z,11.32
2023-02-25T19:24:12.030Z,5.25
2023-02-25T19:26:39.631Z,16.88
2023-02-25T19:29:07.286Z,6.57
2023-02-25T19:31:34.885Z,4.55
2023-02-25T19:34:02.508Z,64.82
2023-02-25T19:36:30.070Z,52.55
2023-02-25T19:38:57.688Z,9.70
2023-02-25T19:41:25.321Z,16.08
2023-02-25T19:43:54.162Z,7.82
2023-02-25T19:46:21.933Z,9.38
2023-02-25T19:48:49.668Z,5.43
2023-02-25T19:51:17.192Z,11.05
2023-02-25T19:53:45.833Z,4.68
2023-02-25T19:56:13.438Z,26.27
2023-02-25T19:58:41.002Z,11.10
2023-02-25T20:01:09.183Z,19.17
2023-02-25T20:03:37.186Z,16.77
2023-02-25T20:06:09.028Z,7.65
2023-02-25T20:11:04.150Z,11.00
2023-02-25T20:13:31.703Z,7.28
2023-02-25T20:16:02.636Z,6.03
2023-02-25T20:18:30.522Z,32.63
2023-02-25T20:20:58.241Z,15.27
2023-02-25T20:23:26.171Z,30.13
2023-02-25T20:26:03.520Z,122.25
2023-02-25T20:28:31.471Z,63.08
2023-02-25T20:31:07.339Z,30.05
2023-02-25T20:33:35.794Z,19.30
2023-02-25T20:36:05.035Z,7.50
2023-02-25T20:38:34.619Z,12.88
2023-02-25T20:41:02.424Z,3.92
2023-02-25T20:43:30.129Z,4.40
2023-02-25T20:45:57.808Z,3.88
2023-02-25T20:48:30.095Z,4.95
2023-02-25T20:50:58.172Z,5.55
2023-02-25T20:53:26.830Z,2.08
2023-02-25T20:55:55.049Z,3.20
2023-02-25T20:58:22.626Z,5.05
2023-02-25T21:00:50.346Z,3.08
2023-02-25T21:03:18.195Z,3.72
2023-02-25T21:05:45.896Z,2.50
2023-02-25T21:08:14.626Z,9.18
2023-02-25T21:10:43.311Z,4.40
2023-02-25T21:13:11.073Z,4.25
2023-02-25T21:15:38.637Z,7.57
2023-02-25T21:18:06.217Z,5.13
2023-02-25T21:20:33.788Z,5.25
2023-02-25T21:23:01.574Z,7.65
2023-02-25T21:25:29.284Z,2.38
2023-02-25T21:27:57.849Z,16.42
2023-02-25T21:30:25.449Z,2.97
2023-02-25T21:32:54.070Z,6.85
2023-02-25T21:35:24.994Z,5.80
2023-02-25T21:37:52.564Z,2.42
2023-02-25T21:40:20.219Z,4.72
2023-02-25T21:42:48.115Z,5.38
2023-02-25T21:45:15.703Z,4.72
2023-02-25T21:47:43.331Z,3.10
2023-02-25T21:50:11.194Z,8.75
2023-02-25T21:52:38.753Z,3.10
2023-02-25T21:55:06.708Z,5.35
2023-02-25T21:57:34.351Z,4.22
2023-02-25T22:00:01.971Z,3.28
2023-02-25T22:02:39.642Z,4.68
2023-02-25T22:05:07.517Z,4.53
2023-02-25T22:07:35.094Z,4.00
2023-02-25T22:10:02.713Z,4.53
2023-02-25T22:12:30.316Z,4.93
2023-02-25T22:14:57.856Z,6.70
2023-02-25T22:17:25.405Z,4.65
2023-02-25T22:19:53.024Z,5.72
2023-02-25T22:22:20.708Z,4.28
2023-02-25T22:24:48.452Z,4.25
2023-02-25T22:27:16.050Z,5.68
2023-02-25T22:29:43.628Z,5.03
2023-02-25T22:32:11.431Z,2.05
2023-02-25T22:34:39.128Z,1.50
2023-02-25T22:37:06.749Z,1.50
2023-02-25T22:39:34.314Z,1.17
2023-02-25T22:42:01.883Z,1.13
2023-02-25T22:44:29.469Z,1.42
2023-02-25T22:46:57.077Z,1.27
2023-02-25T22:49:24.713Z,1.40
2023-02-25T22:51:53.531Z,1.40
2023-02-25T22:54:21.373Z,2.08
2023-02-25T22:56:49.746Z,1.65
2023-02-25T22:59:17.559Z,2.80
2023-02-25T23:01:45.245Z,1.65
2023-02-25T23:04:12.842Z,2.90
2023-02-25T23:06:44.511Z,1.80
2023-02-25T23:09:13.942Z,1.63
2023-02-25T23:11:43.063Z,3.50
2023-02-25T23:14:10.640Z,3.33
2023-02-25T23:16:40.345Z,5.28
2023-02-25T23:19:09.592Z,1.60
2023-02-25T23:21:39.958Z,1.83
2023-02-25T23:24:08.615Z,1.83
2023-02-25T23:26:41.177Z,1.55
2023-02-25T23:29:09.842Z,2.67
2023-02-25T23:31:47.529Z,3.63
2023-02-25T23:34:17.784Z,1.95
2023-02-25T23:36:45.789Z,2.92
2023-02-25T23:39:14.197Z,2.22
2023-02-25T23:41:41.843Z,3.20
2023-02-25T23:44:09.684Z,2.03
2023-02-25T23:46:37.624Z,4.50
2023-02-25T23:49:07.091Z,1.45
2023-02-25T23:51:35.731Z,1.67
2023-02-25T23:54:05.424Z,2.55
2023-02-25T23:56:33.431Z,1.50
2023-02-25T23:59:01.167Z,1.90
